createdAt,value
2022-12-12T00:02:27.165Z,41.70
2022-12-12T00:05:01.455Z,40.53
2022-12-12T00:07:30.896Z,41.67
2022-12-12T00:10:00.679Z,42.03
2022-12-12T00:12:30.211Z,40.10
2022-12-12T00:14:59.654Z,41.08
2022-12-12T00:17:29.139Z,42.08
2022-12-12T00:20:01.192Z,42.40
2022-12-12T00:22:30.677Z,41.92
2022-12-12T00:25:00.145Z,42.42
2022-12-12T00:27:29.658Z,41.83
2022-12-12T00:29:59.145Z,41.97
2022-12-12T00:32:28.735Z,42.65
2022-12-12T00:35:00.779Z,42.17
2022-12-12T00:37:30.288Z,41.35
2022-12-12T00:39:59.753Z,43.38
2022-12-12T00:42:29.212Z,44.25
2022-12-12T00:44:58.787Z,41.35
2022-12-12T00:47:28.301Z,39.35
2022-12-12T00:49:57.792Z,39.47
2022-12-12T00:52:29.830Z,38.30
2022-12-12T00:55:20.123Z,38.53
2022-12-12T00:57:49.595Z,42.97
2022-12-12T01:00:20.064Z,40.30
2022-12-12T01:02:49.728Z,40.72
2022-12-12T01:05:19.363Z,43.50
2022-12-12T01:07:51.490Z,43.38
2022-12-12T01:10:21.032Z,45.70
2022-12-12T01:12:50.839Z,43.75
2022-12-12T01:15:20.524Z,46.55
2022-12-12T01:17:50.001Z,44.47
2022-12-12T01:20:21.099Z,47.25
2022-12-12T01:25:22.752Z,41.70
2022-12-12T01:27:52.281Z,47.28
2022-12-12T01:30:23.166Z,44.15
2022-12-12T01:32:52.896Z,45.40
2022-12-12T01:35:22.370Z,44.28
2022-12-12T01:37:54.920Z,43.20
2022-12-12T01:40:26.213Z,42.65
2022-12-12T01:42:55.786Z,42.40
2022-12-12T01:45:55.330Z,42.15
2022-12-12T01:48:25.793Z,40.90
2022-12-12T01:50:55.237Z,38.47
2022-12-12T01:53:27.432Z,40.85
2022-12-12T01:55:57.010Z,41.03
2022-12-12T01:58:26.517Z,39.35
2022-12-12T02:00:56.059Z,41.22
2022-12-12T02:03:25.602Z,40.58
2022-12-12T02:05:56.373Z,42.42
2022-12-12T02:08:28.527Z,43.38
2022-12-12T02:10:58.045Z,45.83
2022-12-12T02:13:28.913Z,43.90
2022-12-12T02:16:02.864Z,41.72
2022-12-12T02:18:34.382Z,43.03
2022-12-12T02:21:08.497Z,41.83
2022-12-12T02:24:07.964Z,42.00
2022-12-12T02:27:05.424Z,44.65
2022-12-12T02:30:14.150Z,42.17
2022-12-12T02:33:01.607Z,41.80
2022-12-12T02:35:35.456Z,43.35
2022-12-12T02:38:09.232Z,45.40
2022-12-12T02:40:41.373Z,45.97
2022-12-12T02:43:14.139Z,45.33
2022-12-12T02:45:45.106Z,46.13
2022-12-12T02:48:19.661Z,42.78
2022-12-12T02:50:50.279Z,44.08
2022-12-12T02:53:20.716Z,44.83
2022-12-12T02:55:50.286Z,44.78
2022-12-12T02:58:19.846Z,42.60
2022-12-12T03:00:53.372Z,46.83
2022-12-12T03:03:44.733Z,46.10
2022-12-12T03:06:39.358Z,46.15
2022-12-12T03:09:13.797Z,43.80
2022-12-12T03:11:48.440Z,44.90
2022-12-12T03:14:20.295Z,42.22
2022-12-12T03:16:51.629Z,42.85
2022-12-12T03:19:26.244Z,43.88
2022-12-12T03:21:56.918Z,44.08
2022-12-12T03:24:27.815Z,41.80
2022-12-12T03:26:59.069Z,41.13
2022-12-12T03:29:30.101Z,40.97
2022-12-12T03:34:34.280Z,39.88
2022-12-12T03:37:06.154Z,42.17
2022-12-12T03:39:37.013Z,43.70
2022-12-12T03:42:08.800Z,43.85
2022-12-12T03:44:41.618Z,43.97
2022-12-12T03:47:13.409Z,41.67
2022-12-12T03:49:47.181Z,41.75
2022-12-12T03:52:19.218Z,43.65
2022-12-12T03:54:50.149Z,41.53
2022-12-12T03:57:21.686Z,41.80
2022-12-12T03:59:53.386Z,42.85
2022-12-12T04:02:24.724Z,42.03
2022-12-12T04:04:59.237Z,41.80
2022-12-12T04:07:31.826Z,44.92
2022-12-12T04:10:13.783Z,45.05
2022-12-12T04:12:57.151Z,45.88
2022-12-12T04:15:47.288Z,44.58
2022-12-12T04:18:19.502Z,44.75
2022-12-12T04:21:07.796Z,42.30
2022-12-12T04:23:38.859Z,42.85
2022-12-12T04:28:57.115Z,43.65
2022-12-12T04:31:28.000Z,42.35
2022-12-12T04:33:59.598Z,43.58
2022-12-12T04:36:31.998Z,42.60
2022-12-12T04:39:01.489Z,41.47
2022-12-12T04:41:30.989Z,37.67
2022-12-12T04:44:00.486Z,39.60
2022-12-12T04:46:30.622Z,40.08
2022-12-12T04:49:01.714Z,38.23
2022-12-12T04:54:06.110Z,35.33
2022-12-12T04:56:35.677Z,35.22
2022-12-12T04:59:05.268Z,36.88
2022-12-12T05:01:37.834Z,31.90
2022-12-12T05:04:10.547Z,38.30
2022-12-12T05:06:45.697Z,38.25
2022-12-12T05:09:15.229Z,37.80
2022-12-12T05:11:44.888Z,36.28
2022-12-12T05:14:15.481Z,35.65
2022-12-12T05:16:46.622Z,36.35
2022-12-12T05:19:16.156Z,38.83
2022-12-12T05:21:49.196Z,39.72
2022-12-12T05:24:18.683Z,41.03
2022-12-12T05:26:48.245Z,37.22
2022-12-12T05:29:17.753Z,38.42
2022-12-12T05:31:47.261Z,36.17
2022-12-12T05:34:16.807Z,37.17
2022-12-12T05:36:48.945Z,34.53
2022-12-12T05:39:18.698Z,38.42
2022-12-12T05:41:48.227Z,40.42
2022-12-12T05:44:17.718Z,37.67
2022-12-12T05:46:47.233Z,39.03
2022-12-12T05:49:16.715Z,35.58
2022-12-12T05:51:48.849Z,35.75
2022-12-12T05:54:18.379Z,35.03
2022-12-12T05:56:47.872Z,36.15
2022-12-12T05:59:17.353Z,35.97
2022-12-12T06:01:46.871Z,39.08
2022-12-12T06:04:16.389Z,39.30
2022-12-12T06:06:48.579Z,35.55
2022-12-12T06:09:18.134Z,34.10
2022-12-12T06:11:47.619Z,36.25
2022-12-12T06:14:17.140Z,35.58
2022-12-12T06:16:46.631Z,33.92
2022-12-12T06:19:16.161Z,36.10
2022-12-12T06:21:48.477Z,36.08
2022-12-12T06:24:17.931Z,35.45
2022-12-12T06:26:47.383Z,35.50
2022-12-12T06:29:17.243Z,36.50
2022-12-12T06:31:46.781Z,33.72
2022-12-12T06:34:16.233Z,31.42
2022-12-12T06:36:48.621Z,33.47
2022-12-12T06:39:18.073Z,33.63
2022-12-12T06:41:47.598Z,33.25
2022-12-12T06:44:17.097Z,32.42
2022-12-12T06:46:46.635Z,33.78
2022-12-12T06:49:16.207Z,36.03
2022-12-12T06:51:48.893Z,31.60
2022-12-12T06:54:19.406Z,32.90
2022-12-12T06:56:49.506Z,31.98
2022-12-12T06:59:19.104Z,34.20
2022-12-12T07:01:48.643Z,33.55
2022-12-12T07:04:18.202Z,32.95
2022-12-12T07:06:50.251Z,33.08
2022-12-12T07:09:20.550Z,29.80
2022-12-12T07:11:50.060Z,31.73
2022-12-12T07:14:19.574Z,31.67
2022-12-12T07:16:49.023Z,30.88
2022-12-12T07:19:18.522Z,32.35
2022-12-12T07:21:50.640Z,31.48
2022-12-12T07:24:20.134Z,31.83
2022-12-12T07:26:49.668Z,33.40
2022-12-12T07:29:19.138Z,33.10
2022-12-12T07:31:48.578Z,35.00
2022-12-12T07:34:18.093Z,31.83
2022-12-12T07:36:50.190Z,30.60
2022-12-12T07:39:21.207Z,31.83
2022-12-12T07:44:19.996Z,29.52
2022-12-12T07:46:49.475Z,30.83
2022-12-12T07:49:19.011Z,32.65
2022-12-12T07:51:51.082Z,29.50
2022-12-12T07:54:20.670Z,31.15
2022-12-12T07:56:50.154Z,30.70
2022-12-12T07:59:19.772Z,31.63
2022-12-12T08:01:49.276Z,30.33
2022-12-12T08:04:19.087Z,30.92
2022-12-12T08:06:55.767Z,32.63
2022-12-12T08:09:29.199Z,29.60
2022-12-12T08:12:01.581Z,31.20
2022-12-12T08:14:31.095Z,30.13
2022-12-12T08:17:00.603Z,30.13
2022-12-12T08:19:30.103Z,28.65
2022-12-12T08:22:02.425Z,26.48
2022-12-12T08:24:31.907Z,28.80
2022-12-12T08:27:01.368Z,29.20
2022-12-12T08:29:30.851Z,27.20
2022-12-12T08:32:00.369Z,27.85
2022-12-12T08:34:29.858Z,26.38
2022-12-12T08:37:01.920Z,23.75
2022-12-12T08:39:31.444Z,27.52
2022-12-12T08:42:01.393Z,26.67
2022-12-12T08:44:30.919Z,27.27
2022-12-12T08:47:00.550Z,26.73
2022-12-12T08:49:30.043Z,27.27
2022-12-12T08:52:05.959Z,27.33
2022-12-12T08:54:35.645Z,23.90
2022-12-12T08:57:05.307Z,26.10
2022-12-12T08:59:34.952Z,27.40
2022-12-12T09:02:04.598Z,25.65
2022-12-12T09:04:34.165Z,26.00
2022-12-12T09:07:08.628Z,26.67
2022-12-12T09:09:38.413Z,24.75
2022-12-12T09:12:08.527Z,26.70
2022-12-12T09:14:38.140Z,23.83
2022-12-12T09:17:07.617Z,25.55
2022-12-12T09:19:37.341Z,28.40
2022-12-12T09:22:09.459Z,28.13
2022-12-12T09:24:38.931Z,25.38
2022-12-12T09:27:08.770Z,23.88
2022-12-12T09:29:38.314Z,26.13
2022-12-12T09:32:08.032Z,26.88
2022-12-12T09:34:37.549Z,27.05
2022-12-12T09:37:09.605Z,25.08
2022-12-12T09:39:39.040Z,25.00
2022-12-12T09:42:13.494Z,25.75
2022-12-12T09:44:43.140Z,25.27
2022-12-12T09:47:15.602Z,23.25
2022-12-12T09:49:48.369Z,25.15
2022-12-12T09:52:25.171Z,25.48
2022-12-12T09:54:57.195Z,25.10
2022-12-12T09:57:28.929Z,24.20
2022-12-12T10:00:00.177Z,25.80
2022-12-12T10:02:43.448Z,22.35
2022-12-12T10:05:21.642Z,24.27
2022-12-12T10:07:57.146Z,23.23
2022-12-12T10:10:28.436Z,23.05
2022-12-12T10:12:58.304Z,24.52
2022-12-12T10:15:32.307Z,24.38
2022-12-12T10:18:02.596Z,21.73
2022-12-12T10:20:33.184Z,30.00
2022-12-12T10:23:08.268Z,24.13
2022-12-12T10:25:42.633Z,25.08
2022-12-12T10:28:13.621Z,24.58
2022-12-12T10:30:59.960Z,20.20
2022-12-12T10:33:33.941Z,21.70
2022-12-12T10:36:07.296Z,22.58
2022-12-12T10:38:51.386Z,22.88
2022-12-12T10:41:23.495Z,22.88
2022-12-12T10:43:58.187Z,19.88
2022-12-12T10:46:28.654Z,24.17
2022-12-12T10:48:58.222Z,22.90
2022-12-12T10:51:27.826Z,21.42
2022-12-12T10:53:59.862Z,19.02
2022-12-12T10:56:30.062Z,23.08
2022-12-12T10:59:00.187Z,19.40
2022-12-12T11:02:00.429Z,18.77
2022-12-12T11:04:27.322Z,19.50
2022-12-12T11:06:57.998Z,27.35
2022-12-12T11:09:30.757Z,21.88
2022-12-12T11:12:00.843Z,23.25
2022-12-12T11:14:35.733Z,18.60
2022-12-12T11:17:05.297Z,19.23
2022-12-12T11:19:39.863Z,17.85
2022-12-12T11:22:09.355Z,18.73
2022-12-12T11:24:41.360Z,18.95
2022-12-12T11:27:10.803Z,20.15
2022-12-12T11:29:46.264Z,18.52
2022-12-12T11:32:16.359Z,19.38
2022-12-12T11:34:47.436Z,19.60
2022-12-12T11:39:51.937Z,21.13
2022-12-12T11:42:25.586Z,18.63
2022-12-12T11:45:03.365Z,18.48
2022-12-12T11:47:38.581Z,18.50
2022-12-12T11:50:19.802Z,18.90
2022-12-12T21:42:33.645Z,53.60
2022-12-12T21:45:03.075Z,53.08
2022-12-12T21:47:32.507Z,51.75
2022-12-12T21:50:01.914Z,53.90
2022-12-12T21:52:31.393Z,52.30
2022-12-12T21:55:00.831Z,52.13
2022-12-12T21:57:33.004Z,55.03
2022-12-12T22:00:02.445Z,55.45
2022-12-12T22:02:31.998Z,51.72
2022-12-12T22:05:01.558Z,54.13
2022-12-12T22:07:31.044Z,53.97
2022-12-12T22:10:11.255Z,53.65
2022-12-12T22:12:43.678Z,54.72
2022-12-12T22:15:27.319Z,54.15
2022-12-12T22:17:56.770Z,55.95
2022-12-12T22:20:26.208Z,52.85
2022-12-12T22:22:56.139Z,55.58
2022-12-12T22:25:25.673Z,50.88
2022-12-12T22:27:57.725Z,51.70
2022-12-12T22:30:27.190Z,49.35
2022-12-12T22:32:56.622Z,54.20
2022-12-12T22:35:26.683Z,53.40
2022-12-12T22:37:56.578Z,51.57
2022-12-12T22:40:26.072Z,53.22
2022-12-12T22:42:58.132Z,56.10
2022-12-12T22:45:27.646Z,54.42
2022-12-12T22:47:57.087Z,53.45
2022-12-12T22:50:26.562Z,52.95
2022-12-12T22:52:56.030Z,56.08
2022-12-12T22:55:26.259Z,52.88
2022-12-12T22:57:58.297Z,51.05
2022-12-12T23:00:27.754Z,50.97
2022-12-12T23:02:57.424Z,51.15
2022-12-12T23:05:26.925Z,47.55
2022-12-12T23:07:56.400Z,51.67
2022-12-12T23:10:25.991Z,50.25
2022-12-12T23:12:58.093Z,51.58
2022-12-12T23:15:27.553Z,48.13
2022-12-12T23:17:57.044Z,46.20
2022-12-12T23:20:26.525Z,48.45
2022-12-12T23:22:56.123Z,46.58
2022-12-12T23:25:25.639Z,44.72
2022-12-12T23:27:57.691Z,40.28
2022-12-12T23:30:27.156Z,40.70
2022-12-12T23:32:56.663Z,41.15
2022-12-12T23:35:26.249Z,44.55
2022-12-12T23:37:55.696Z,42.30
2022-12-12T23:40:25.173Z,44.67
2022-12-12T23:42:54.669Z,45.85
2022-12-12T23:45:26.809Z,49.35
2022-12-12T23:47:56.323Z,46.42
2022-12-12T23:50:25.781Z,46.40
2022-12-12T23:52:55.259Z,48.33
2022-12-12T23:55:24.710Z,47.50
2022-12-12T23:57:54.190Z,48.92
